createdAt,value
2019-04-09T00:04:54.206Z,3.28
2019-04-09T00:15:56.357Z,3.27
2019-04-09T00:26:59.513Z,3.27
2019-04-09T00:38:01.102Z,3.27
2019-04-09T00:49:03.023Z,3.27
2019-04-09T01:00:03.671Z,3.27
2019-04-09T01:11:07.455Z,3.27
2019-04-09T01:22:02.120Z,3.26
2019-04-09T01:33:05.010Z,3.26
2019-04-09T01:44:05.449Z,3.26
2019-04-09T01:55:05.976Z,3.26
2019-04-09T02:06:06.104Z,3.26
2019-04-09T02:17:07.951Z,3.26
2019-04-09T02:28:11.088Z,3.25
2019-04-09T02:39:12.763Z,3.25
2019-04-09T02:50:14.529Z,3.25
2019-04-09T03:01:19.317Z,3.25
2019-04-09T03:12:21.428Z,3.25
2019-04-09T03:23:20.775Z,3.25
2019-04-09T03:34:22.350Z,3.25
2019-04-09T03:45:22.684Z,3.25
2019-04-09T03:56:23.799Z,3.24
2019-04-09T04:07:24.601Z,3.24
2019-04-09T04:18:21.990Z,3.23
2019-04-09T04:29:26.772Z,3.23
2019-04-09T04:40:32.176Z,3.23
2019-04-09T04:51:32.859Z,3.23
2019-04-09T05:02:37.524Z,3.24
2019-04-09T05:13:41.452Z,3.25
2019-04-09T05:24:37.300Z,3.25
2019-04-09T05:35:39.761Z,3.25
2019-04-09T05:46:41.853Z,3.25
2019-04-09T05:57:44.481Z,3.25
2019-04-09T06:08:46.757Z,3.27
2019-04-09T06:19:50.475Z,3.28
2019-04-09T06:30:54.791Z,3.28
2019-04-09T06:41:53.340Z,3.30
2019-04-09T06:52:50.915Z,3.32
2019-04-09T07:03:54.896Z,3.34
2019-04-09T07:14:56.551Z,3.38
2019-04-09T07:26:00.542Z,3.39
2019-04-09T07:37:07.606Z,3.39
2019-04-09T07:48:07.681Z,3.38
2019-04-09T07:59:17.540Z,3.39
2019-04-09T08:10:19.313Z,3.39
2019-04-09T08:21:18.888Z,3.39
2019-04-09T08:32:20.552Z,3.40
2019-04-09T08:43:24.633Z,3.42
2019-04-09T08:54:27.160Z,3.39
2019-04-09T09:05:35.642Z,3.38
2019-04-09T09:16:37.148Z,3.38
2019-04-09T09:27:43.504Z,3.38
2019-04-09T09:38:48.223Z,3.38
2019-04-09T09:49:49.240Z,3.39
2019-04-09T10:00:52.217Z,3.38
2019-04-09T10:11:40.516Z,3.38
2019-04-09T10:22:36.938Z,3.39
2019-04-09T10:33:46.310Z,3.38
2019-04-09T10:44:50.261Z,3.38
2019-04-09T10:55:54.820Z,3.38
2019-04-09T11:06:55.329Z,3.39
2019-04-09T11:17:53.100Z,3.37
2019-04-09T11:28:54.301Z,3.39
2019-04-09T11:39:53.602Z,3.38
2019-04-09T11:50:51.647Z,3.39
2019-04-09T12:02:01.158Z,3.39
2019-04-09T12:13:00.132Z,3.38
2019-04-09T12:24:02.833Z,3.38
2019-04-09T12:35:06.181Z,3.39
2019-04-09T12:46:11.538Z,3.39
2019-04-09T12:57:14.603Z,3.39
2019-04-09T13:08:17.767Z,3.38
2019-04-09T13:19:17.381Z,3.38
2019-04-09T13:30:18.385Z,3.40
2019-04-09T13:41:20.040Z,3.39
2019-04-09T13:52:18.212Z,3.38
2019-04-09T14:03:26.169Z,3.43
2019-04-09T14:14:06.686Z,3.41
2019-04-09T14:25:03.229Z,3.39
2019-04-09T14:36:04.347Z,3.40
2019-04-09T14:47:04.906Z,3.39
2019-04-09T14:58:04.713Z,3.39
2019-04-09T15:09:06.700Z,3.40
2019-04-09T15:20:04.580Z,3.41
2019-04-09T15:31:06.415Z,3.42
2019-04-09T15:42:02.613Z,3.42
2019-04-09T15:52:59.089Z,3.42
2019-04-09T16:04:01.906Z,3.42
2019-04-09T16:15:02.414Z,3.42
2019-04-09T16:25:52.179Z,3.41
2019-04-09T16:37:00.936Z,3.42
2019-04-09T16:47:54.683Z,3.41
2019-04-09T16:58:56.178Z,3.40
2019-04-09T17:09:58.562Z,3.40
2019-04-09T17:20:54.201Z,3.39
2019-04-09T17:31:53.100Z,3.38
2019-04-09T17:42:53.867Z,3.37
2019-04-09T17:53:55.431Z,3.37
2019-04-09T18:04:57.623Z,3.37
2019-04-09T18:15:40.422Z,3.36
2019-04-09T18:26:41.008Z,3.36
2019-04-09T18:37:42.154Z,3.35
2019-04-09T18:48:44.226Z,3.34
2019-04-09T18:59:44.509Z,3.34
2019-04-09T19:10:41.730Z,3.34
2019-04-09T19:21:36.748Z,3.34
2019-04-09T19:32:37.053Z,3.34
2019-04-09T19:43:32.910Z,3.33
2019-04-09T19:54:29.411Z,3.33
2019-04-09T20:05:35.231Z,3.33
2019-04-09T20:16:30.935Z,3.32
2019-04-09T20:27:32.853Z,3.32
2019-04-09T20:38:31.282Z,3.32
2019-04-09T20:49:28.428Z,3.32
2019-04-09T21:00:32.256Z,3.31
2019-04-09T21:11:34.681Z,3.31
2019-04-09T21:22:35.448Z,3.31
2019-04-09T21:33:40.032Z,3.31
2019-04-09T21:44:39.470Z,3.30
2019-04-09T21:55:38.745Z,3.30
2019-04-09T22:06:39.794Z,3.30
2019-04-09T22:17:40.260Z,3.30
2019-04-09T22:28:44.845Z,3.30
2019-04-09T22:39:48.338Z,3.30
2019-04-09T22:50:50.329Z,3.29
2019-04-09T23:01:52.736Z,3.29
2019-04-09T23:12:49.996Z,3.29
2019-04-09T23:23:51.229Z,3.29
2019-04-09T23:34:44.163Z,3.28
2019-04-09T23:45:44.570Z,3.28
2019-04-09T23:56:44.203Z,3.28
